createdAt,value
2018-07-01T00:01:45.129Z,7.53
2018-07-01T00:04:13.775Z,5.83
2018-07-01T00:06:42.328Z,6.63
2018-07-01T00:09:10.989Z,6.30
2018-07-01T00:11:53.943Z,7.57
2018-07-01T00:14:22.598Z,6.00
2018-07-01T00:16:51.163Z,5.90
2018-07-01T00:19:19.947Z,5.47
2018-07-01T00:21:48.524Z,6.13
2018-07-01T00:24:17.123Z,5.47
2018-07-01T00:26:45.749Z,5.63
2018-07-01T00:29:14.315Z,7.87
2018-07-01T00:31:42.969Z,5.70
2018-07-01T00:34:11.551Z,5.70
2018-07-01T00:36:40.167Z,6.83
2018-07-01T00:39:11.190Z,8.27
2018-07-01T00:41:39.786Z,5.60
2018-07-01T00:44:08.650Z,5.93
2018-07-01T00:46:38.009Z,7.33
2018-07-01T00:49:11.834Z,5.63
2018-07-01T00:51:40.415Z,7.17
2018-07-01T00:54:09.024Z,5.60
2018-07-01T00:56:37.628Z,5.67
2018-07-01T00:59:06.513Z,5.43
2018-07-01T01:01:35.207Z,5.77
2018-07-01T01:04:03.851Z,5.13
2018-07-01T01:06:32.454Z,5.63
2018-07-01T01:09:01.027Z,5.67
2018-07-01T01:11:29.833Z,5.63
2018-07-01T01:13:58.444Z,5.37
2018-07-01T01:16:27.035Z,6.27
2018-07-01T01:18:55.666Z,5.70
2018-07-01T01:21:24.287Z,5.13
2018-07-01T01:23:52.893Z,6.37
2018-07-01T01:26:21.426Z,5.23
2018-07-01T01:28:50.226Z,5.63
2018-07-01T01:31:18.906Z,8.10
2018-07-01T01:33:47.500Z,5.87
2018-07-01T01:36:16.255Z,5.47
2018-07-01T01:38:45.724Z,6.30
2018-07-01T01:41:23.062Z,7.30
2018-07-01T01:43:55.143Z,5.60
2018-07-01T01:46:29.362Z,5.87
2018-07-01T01:49:01.895Z,5.80
2018-07-01T01:51:35.986Z,5.80
2018-07-01T01:54:15.940Z,5.33
2018-07-01T01:56:49.354Z,5.50
2018-07-01T01:59:23.212Z,6.00
2018-07-01T02:01:57.146Z,6.40
2018-07-01T02:04:30.331Z,5.90
2018-07-01T02:07:02.155Z,6.50
2018-07-01T02:09:33.086Z,6.07
2018-07-01T02:12:02.863Z,6.30
2018-07-01T02:16:40.859Z,6.17
2018-07-01T02:19:09.498Z,6.50
2018-07-01T02:21:38.119Z,5.37
2018-07-01T02:24:11.159Z,6.53
2018-07-01T02:26:39.861Z,5.13
2018-07-01T02:29:08.677Z,6.00
2018-07-01T02:31:37.294Z,5.43
2018-07-01T02:34:05.987Z,5.67
2018-07-01T02:36:34.606Z,5.47
2018-07-01T02:39:09.224Z,6.60
2018-07-01T02:41:38.059Z,5.43
2018-07-01T02:44:06.736Z,5.33
2018-07-01T02:46:35.311Z,5.67
2018-07-01T02:49:04.094Z,5.63
2018-07-01T02:51:32.744Z,6.37
2018-07-01T02:54:01.338Z,6.10
2018-07-01T02:56:29.999Z,6.03
2018-07-01T02:58:58.638Z,6.10
2018-07-01T03:01:27.222Z,6.40
2018-07-01T03:03:55.771Z,5.83
2018-07-01T03:06:24.363Z,5.93
2018-07-01T03:08:53.117Z,5.77
2018-07-01T03:11:21.694Z,6.10
2018-07-01T03:13:50.267Z,7.37
2018-07-01T03:16:18.910Z,7.00
2018-07-01T03:18:47.584Z,5.97
2018-07-01T03:21:16.178Z,5.77
2018-07-01T03:23:44.813Z,6.20
2018-07-01T03:26:13.506Z,6.87
2018-07-01T03:28:42.329Z,6.63
2018-07-01T03:31:10.930Z,6.17
2018-07-01T03:33:39.562Z,7.00
2018-07-01T03:36:08.186Z,6.83
2018-07-01T03:38:37.059Z,7.00
2018-07-01T03:41:05.678Z,6.30
2018-07-01T03:43:34.270Z,7.30
2018-07-01T03:46:03.046Z,6.23
2018-07-01T03:48:31.782Z,8.40
2018-07-01T03:51:00.298Z,7.17
2018-07-01T03:53:28.919Z,6.90
2018-07-01T03:55:57.541Z,6.90
2018-07-01T03:58:26.176Z,6.30
2018-07-01T04:00:54.789Z,6.73
2018-07-01T04:03:23.414Z,6.47
2018-07-01T04:05:52.058Z,6.57
2018-07-01T04:08:25.855Z,5.97
2018-07-01T04:10:54.812Z,5.90
2018-07-01T04:13:23.326Z,7.07
2018-07-01T04:15:51.836Z,7.73
2018-07-01T04:18:20.667Z,7.47
2018-07-01T04:20:49.206Z,7.40
2018-07-01T04:23:17.867Z,7.30
2018-07-01T04:25:46.453Z,6.30
2018-07-01T04:28:15.020Z,7.23
2018-07-01T04:30:43.570Z,7.07
2018-07-01T04:33:12.126Z,7.00
2018-07-01T04:35:40.775Z,7.37
2018-07-01T04:38:09.459Z,6.17
2018-07-01T04:40:38.053Z,6.60
2018-07-01T04:43:06.717Z,6.93
2018-07-01T04:45:35.328Z,6.70
2018-07-01T04:48:04.003Z,6.30
2018-07-01T04:50:32.623Z,6.10
2018-07-01T04:53:01.198Z,8.13
2018-07-01T04:55:29.771Z,6.63
2018-07-01T04:57:58.309Z,6.30
2018-07-01T05:00:27.050Z,7.10
2018-07-01T05:02:55.615Z,8.47
2018-07-01T05:05:24.166Z,7.33
2018-07-01T05:07:52.753Z,6.10
2018-07-01T05:10:21.455Z,7.00
2018-07-01T05:12:50.090Z,6.70
2018-07-01T05:15:18.726Z,7.07
2018-07-01T05:17:47.266Z,7.47
2018-07-01T05:20:15.799Z,8.87
2018-07-01T05:22:44.431Z,6.93
2018-07-01T05:25:13.058Z,8.13
2018-07-01T05:27:41.717Z,6.73
2018-07-01T05:30:10.262Z,6.10
2018-07-01T05:32:38.942Z,6.17
2018-07-01T05:35:07.544Z,6.37
2018-07-01T05:37:36.218Z,6.87
2018-07-01T05:40:05.166Z,6.37
2018-07-01T05:42:33.771Z,10.07
2018-07-01T05:45:02.351Z,6.67
2018-07-01T05:47:30.954Z,10.43
2018-07-01T05:49:59.906Z,6.67
2018-07-01T05:52:28.539Z,7.43
2018-07-01T05:54:57.101Z,7.73
2018-07-01T05:57:25.717Z,8.30
2018-07-01T05:59:54.513Z,6.80
2018-07-01T06:02:23.129Z,6.20
2018-07-01T06:04:51.753Z,6.43
2018-07-01T06:07:20.469Z,6.53
2018-07-01T06:09:49.291Z,6.83
2018-07-01T06:12:17.874Z,11.23
2018-07-01T06:14:46.559Z,8.67
2018-07-01T06:17:15.232Z,9.53
2018-07-01T06:19:43.897Z,11.43
2018-07-01T06:22:12.488Z,6.60
2018-07-01T06:24:41.104Z,6.07
2018-07-01T06:27:09.728Z,8.53
2018-07-01T06:29:38.388Z,9.23
2018-07-01T06:32:07.045Z,10.10
2018-07-01T06:34:35.660Z,12.00
2018-07-01T06:37:04.255Z,10.77
2018-07-01T06:39:38.096Z,7.47
2018-07-01T06:42:06.763Z,9.00
2018-07-01T06:44:35.375Z,6.90
2018-07-01T06:47:03.935Z,7.33
2018-07-01T06:49:32.724Z,6.90
2018-07-01T06:52:01.231Z,7.17
2018-07-01T06:54:29.823Z,7.50
2018-07-01T06:56:58.451Z,7.00
2018-07-01T06:59:27.062Z,7.27
2018-07-01T07:01:55.677Z,11.07
2018-07-01T07:04:24.251Z,6.80
2018-07-01T07:06:52.899Z,6.30
2018-07-01T07:09:21.502Z,7.07
2018-07-01T07:11:50.072Z,6.23
2018-07-01T07:14:18.736Z,6.17
2018-07-01T07:16:47.296Z,7.93
2018-07-01T07:19:16.121Z,6.13
2018-07-01T07:21:44.726Z,6.33
2018-07-01T07:24:13.347Z,6.17
2018-07-01T07:26:41.893Z,5.80
2018-07-01T07:29:10.612Z,6.40
2018-07-01T07:31:39.224Z,7.00
2018-07-01T07:34:07.852Z,6.87
2018-07-01T07:36:36.536Z,6.73
2018-07-01T07:39:07.399Z,8.27
2018-07-01T07:41:36.058Z,7.53
2018-07-01T07:44:05.017Z,6.73
2018-07-01T07:46:33.771Z,7.87
2018-07-01T07:49:02.470Z,6.40
2018-07-01T07:51:31.119Z,6.83
2018-07-01T07:53:59.725Z,7.80
2018-07-01T07:56:28.381Z,8.43
2018-07-01T07:58:56.957Z,7.30
2018-07-01T08:01:25.580Z,7.07
2018-07-01T08:03:54.157Z,7.20
2018-07-01T08:06:22.756Z,7.07
2018-07-01T08:08:56.684Z,7.97
2018-07-01T08:11:25.274Z,10.03
2018-07-01T08:13:54.051Z,8.67
2018-07-01T08:16:22.714Z,7.73
2018-07-01T08:19:05.052Z,9.10
2018-07-01T08:21:33.831Z,9.17
2018-07-01T08:24:02.427Z,8.80
2018-07-01T08:26:31.001Z,8.03
2018-07-01T08:29:04.944Z,7.13
2018-07-01T08:31:33.576Z,9.40
2018-07-01T08:34:02.153Z,11.20
2018-07-01T08:36:30.778Z,7.97
2018-07-01T08:38:59.687Z,7.60
2018-07-01T08:41:29.118Z,10.57
2018-07-01T08:43:57.698Z,8.07
2018-07-01T08:46:26.251Z,8.90
2018-07-01T08:48:54.888Z,8.10
2018-07-01T08:51:23.447Z,7.67
2018-07-01T08:53:51.985Z,7.37
2018-07-01T08:56:20.497Z,8.05
2018-07-01T08:58:49.170Z,9.33
2018-07-01T09:01:17.678Z,8.23
2018-07-01T09:03:46.242Z,8.63
2018-07-01T09:06:14.837Z,8.43
2018-07-01T09:08:48.481Z,7.70
2018-07-01T09:11:16.945Z,8.75
2018-07-01T09:13:45.531Z,7.90
2018-07-01T09:16:14.122Z,9.58
2018-07-01T09:18:42.826Z,8.77
2018-07-01T09:21:11.408Z,10.05
2018-07-01T09:23:40.149Z,8.85
2018-07-01T09:26:08.722Z,11.85
2018-07-01T09:28:37.642Z,8.45
2018-07-01T09:31:06.269Z,8.25
2018-07-01T09:33:34.854Z,9.23
2018-07-01T09:36:03.574Z,9.10
2018-07-01T09:38:32.138Z,9.45
2018-07-01T09:41:00.810Z,9.55
2018-07-01T09:43:29.401Z,10.13
2018-07-01T09:45:57.988Z,10.25
2018-07-01T09:48:26.618Z,11.00
2018-07-01T09:50:55.194Z,9.65
2018-07-01T09:53:23.734Z,10.78
2018-07-01T09:55:52.413Z,10.72
2018-07-01T09:58:21.250Z,9.70
2018-07-01T10:00:49.790Z,11.28
2018-07-01T10:03:18.358Z,11.50
2018-07-01T10:05:46.934Z,9.53
2018-07-01T10:08:15.525Z,10.45
2018-07-01T10:10:44.147Z,9.90
2018-07-01T10:13:12.776Z,9.80
2018-07-01T10:15:41.482Z,10.95
2018-07-01T10:18:10.174Z,10.28
2018-07-01T10:20:38.871Z,9.05
2018-07-01T10:23:07.462Z,9.90
2018-07-01T10:25:36.124Z,9.60
2018-07-01T10:28:04.688Z,9.55
2018-07-01T10:30:33.298Z,9.80
2018-07-01T10:33:01.952Z,9.13
2018-07-01T10:35:30.555Z,9.70
2018-07-01T10:37:59.251Z,10.23
2018-07-01T10:40:27.832Z,9.38
2018-07-01T10:42:57.173Z,10.05
2018-07-01T10:45:25.773Z,9.60
2018-07-01T10:47:55.208Z,9.25
2018-07-01T10:50:24.035Z,9.35
2018-07-01T10:52:52.618Z,8.50
2018-07-01T10:55:21.265Z,9.23
2018-07-01T10:57:49.838Z,10.68
2018-07-01T11:00:18.682Z,8.65
2018-07-01T11:02:47.222Z,9.50
2018-07-01T11:05:15.832Z,8.80
2018-07-01T11:07:44.393Z,10.10
2018-07-01T11:10:13.077Z,8.73
2018-07-01T11:12:41.710Z,12.65
2018-07-01T11:15:10.323Z,9.73
2018-07-01T11:17:38.936Z,9.23
2018-07-01T11:20:07.699Z,9.63
2018-07-01T11:22:36.420Z,9.15
2018-07-01T11:25:05.084Z,9.13
2018-07-01T11:27:33.714Z,10.18
2018-07-01T11:30:02.305Z,9.45
2018-07-01T11:32:30.905Z,9.35
2018-07-01T11:34:59.499Z,8.68
2018-07-01T11:37:28.043Z,8.90
2018-07-01T11:40:01.918Z,8.00
2018-07-01T11:42:30.547Z,7.87
2018-07-01T11:44:59.079Z,8.15
2018-07-01T11:47:27.655Z,8.43
2018-07-01T11:49:56.407Z,9.08
2018-07-01T11:52:25.008Z,8.60
2018-07-01T11:54:53.653Z,8.60
2018-07-01T11:57:22.328Z,8.98
2018-07-01T11:59:50.892Z,8.50
2018-07-01T12:02:19.495Z,9.08
2018-07-01T12:05:02.954Z,8.68
2018-07-01T12:07:16.714Z,8.48
2018-07-01T12:09:45.278Z,8.90
2018-07-01T12:12:13.940Z,8.85
2018-07-01T12:14:42.634Z,8.58
2018-07-01T12:17:11.234Z,8.88
2018-07-01T12:19:39.959Z,10.65
2018-07-01T12:22:08.575Z,8.98
2018-07-01T12:24:37.172Z,9.18
2018-07-01T12:27:05.820Z,9.13
2018-07-01T12:29:34.818Z,9.00
2018-07-01T12:32:03.504Z,10.82
2018-07-01T12:34:32.065Z,9.95
2018-07-01T12:37:00.739Z,8.75
2018-07-01T12:39:29.391Z,8.65
2018-07-01T12:41:58.073Z,8.20
2018-07-01T12:44:26.650Z,8.80
2018-07-01T12:46:55.262Z,8.78
2018-07-01T12:49:23.913Z,12.30
2018-07-01T12:51:52.507Z,10.63
2018-07-01T12:54:21.139Z,13.48
2018-07-01T12:56:49.753Z,10.18
2018-07-01T12:59:18.407Z,10.78
2018-07-01T13:01:47.035Z,10.85
2018-07-01T13:04:15.653Z,10.70
2018-07-01T13:06:44.281Z,8.93
2018-07-01T13:09:13.723Z,11.08
2018-07-01T13:11:42.906Z,11.40
2018-07-01T13:14:11.489Z,9.90
2018-07-01T13:16:40.130Z,9.20
2018-07-01T13:19:09.035Z,8.85
2018-07-01T13:21:37.583Z,8.58
2018-07-01T13:24:06.190Z,8.60
2018-07-01T13:26:34.742Z,9.28
2018-07-01T13:29:03.648Z,12.00
2018-07-01T13:31:32.210Z,8.83
2018-07-01T13:34:00.810Z,10.23
2018-07-01T13:36:29.473Z,8.65
2018-07-01T13:38:58.278Z,10.25
2018-07-01T13:41:26.879Z,11.63
2018-07-01T13:43:55.748Z,11.60
2018-07-01T13:46:24.289Z,13.13
2018-07-01T13:48:52.721Z,12.40
2018-07-01T13:51:21.363Z,12.20
2018-07-01T13:53:49.988Z,8.53
2018-07-01T13:56:18.648Z,8.50
2018-07-01T13:58:47.577Z,8.73
2018-07-01T14:01:16.237Z,8.53
2018-07-01T14:03:44.979Z,8.70
2018-07-01T14:06:13.660Z,15.15
2018-07-01T14:08:42.453Z,8.53
2018-07-01T14:11:11.027Z,9.25
2018-07-01T14:13:39.596Z,10.40
2018-07-01T14:16:08.161Z,8.70
2018-07-01T14:18:36.863Z,8.25
2018-07-01T14:21:05.579Z,7.85
2018-07-01T14:23:34.458Z,8.00
2018-07-01T14:26:03.095Z,7.60
2018-07-01T14:28:31.671Z,8.15
2018-07-01T14:31:00.506Z,9.23
2018-07-01T14:33:29.125Z,7.67
2018-07-01T14:35:57.720Z,8.08
2018-07-01T14:38:26.304Z,10.15
2018-07-01T14:40:54.862Z,8.38
2018-07-01T14:43:23.498Z,7.62
2018-07-01T14:45:52.179Z,7.28
2018-07-01T14:48:20.753Z,7.62
2018-07-01T14:50:49.335Z,7.28
2018-07-01T14:53:18.034Z,7.55
2018-07-01T14:55:46.746Z,7.42
2018-07-01T14:58:15.401Z,7.17
2018-07-01T15:00:44.205Z,7.80
2018-07-01T15:03:12.813Z,7.42
2018-07-01T15:05:41.364Z,9.85
2018-07-01T15:08:10.019Z,11.10
2018-07-01T15:10:38.645Z,7.53
2018-07-01T15:13:07.184Z,8.00
2018-07-01T15:15:35.796Z,9.93
2018-07-01T15:18:04.499Z,9.43
2018-07-01T15:20:33.330Z,7.53
2018-07-01T15:23:01.950Z,9.88
2018-07-01T15:25:30.607Z,7.53
2018-07-01T15:27:59.216Z,6.90
2018-07-01T15:30:27.863Z,7.10
2018-07-01T15:32:56.511Z,7.55
2018-07-01T15:35:25.130Z,7.28
2018-07-01T15:37:53.733Z,7.37
2018-07-01T15:40:22.335Z,7.12
2018-07-01T15:42:51.002Z,7.65
2018-07-01T15:45:19.619Z,7.83
2018-07-01T15:47:48.358Z,8.00
2018-07-01T15:50:17.042Z,8.58
2018-07-01T15:52:45.664Z,7.55
2018-07-01T15:55:15.028Z,8.55
2018-07-01T15:57:43.647Z,7.87
2018-07-01T16:00:12.438Z,8.28
2018-07-01T16:02:41.085Z,7.80
2018-07-01T16:05:09.683Z,7.80
2018-07-01T16:07:38.291Z,8.60
2018-07-01T16:10:11.967Z,7.70
2018-07-01T16:12:40.585Z,7.53
2018-07-01T16:15:09.202Z,7.97
2018-07-01T16:17:37.783Z,7.20
2018-07-01T16:20:06.405Z,7.60
2018-07-01T16:22:34.989Z,6.87
2018-07-01T16:25:08.822Z,7.58
2018-07-01T16:27:40.791Z,9.15
2018-07-01T16:30:14.681Z,7.40
2018-07-01T16:32:43.294Z,7.28
2018-07-01T16:35:11.952Z,7.35
2018-07-01T16:37:40.595Z,7.35
2018-07-01T16:40:09.198Z,7.62
2018-07-01T16:42:37.734Z,7.37
2018-07-01T16:45:06.437Z,6.95
2018-07-01T16:47:35.050Z,7.15
2018-07-01T16:50:03.674Z,7.70
2018-07-01T16:52:32.434Z,7.47
2018-07-01T16:55:01.006Z,7.25
2018-07-01T16:57:29.571Z,7.15
2018-07-01T16:59:58.327Z,7.53
2018-07-01T17:02:26.970Z,6.40
2018-07-01T17:04:55.508Z,6.70
2018-07-01T17:07:24.120Z,7.17
2018-07-01T17:09:52.754Z,7.45
2018-07-01T17:12:21.402Z,8.23
2018-07-01T17:14:50.110Z,9.40
2018-07-01T17:17:18.762Z,6.90
2018-07-01T17:19:47.487Z,7.05
2018-07-01T17:22:16.104Z,7.92
2018-07-01T17:24:45.056Z,8.10
2018-07-01T17:27:13.651Z,7.10
2018-07-01T17:29:42.185Z,6.87
2018-07-01T17:32:15.973Z,7.22
2018-07-01T17:34:45.070Z,7.55
2018-07-01T17:37:14.094Z,7.60
2018-07-01T17:39:42.929Z,9.05
2018-07-01T17:42:11.485Z,10.40
2018-07-01T17:44:40.098Z,7.22
2018-07-01T17:47:08.627Z,6.95
2018-07-01T17:49:37.251Z,7.95
2018-07-01T17:52:05.898Z,7.65
2018-07-01T17:54:34.504Z,7.53
2018-07-01T17:57:03.083Z,8.35
2018-07-01T17:59:37.082Z,11.68
2018-07-01T18:02:05.721Z,7.47
2018-07-01T18:04:34.260Z,6.42
2018-07-01T18:07:02.872Z,7.33
2018-07-01T18:09:31.491Z,7.92
2018-07-01T18:12:00.106Z,7.83
2018-07-01T18:14:28.695Z,10.35
2018-07-01T18:16:57.289Z,7.90
2018-07-01T18:19:25.853Z,7.37
2018-07-01T18:22:14.825Z,8.60
2018-07-01T18:24:48.923Z,8.10
2018-07-01T18:26:51.773Z,7.40
2018-07-01T18:29:20.709Z,8.80
2018-07-01T18:31:49.084Z,9.43
2018-07-01T18:34:17.686Z,8.90
2018-07-01T18:36:46.371Z,13.10
2018-07-01T18:39:15.253Z,9.83
2018-07-01T18:41:43.912Z,8.50
2018-07-01T18:44:12.526Z,8.40
2018-07-01T18:46:41.326Z,8.48
2018-07-01T18:49:10.018Z,10.35
2018-07-01T18:51:38.642Z,10.88
2018-07-01T18:54:07.244Z,7.85
2018-07-01T18:56:35.937Z,10.03
2018-07-01T18:59:04.612Z,9.90
2018-07-01T19:01:33.146Z,8.53
2018-07-01T19:04:01.725Z,9.30
2018-07-01T19:06:30.633Z,8.88
2018-07-01T19:08:59.266Z,8.18
2018-07-01T19:11:27.840Z,9.10
2018-07-01T19:13:56.462Z,8.65
2018-07-01T19:16:25.014Z,9.87
2018-07-01T19:18:53.976Z,9.33
2018-07-01T19:21:22.601Z,9.90
2018-07-01T19:23:51.218Z,8.20
2018-07-01T19:26:19.848Z,10.08
2018-07-01T19:28:48.666Z,8.58
2018-07-01T19:31:17.282Z,12.27
2018-07-01T19:33:45.865Z,8.65
2018-07-01T19:36:14.515Z,11.23
2018-07-01T19:38:48.285Z,10.40
2018-07-01T19:41:16.942Z,10.03
2018-07-01T19:43:45.488Z,9.17
2018-07-01T19:46:14.118Z,8.67
2018-07-01T19:48:42.669Z,12.80
2018-07-01T19:51:11.249Z,13.10
2018-07-01T19:53:39.927Z,14.80
2018-07-01T19:56:08.538Z,17.33
2018-07-01T19:58:37.134Z,15.67
2018-07-01T20:01:05.777Z,8.97
2018-07-01T20:03:34.434Z,11.43
2018-07-01T20:06:03.042Z,10.80
2018-07-01T20:08:31.792Z,14.80
2018-07-01T20:11:00.334Z,10.13
2018-07-01T20:13:28.906Z,8.80
2018-07-01T20:15:57.545Z,17.30
2018-07-01T20:18:26.186Z,17.57
2018-07-01T20:20:54.860Z,23.43
2018-07-01T20:23:23.511Z,30.73
2018-07-01T20:25:52.131Z,20.00
2018-07-01T20:28:20.725Z,13.93
2018-07-01T20:30:49.313Z,11.47
2018-07-01T20:33:17.898Z,10.53
2018-07-01T20:35:46.430Z,12.50
2018-07-01T20:38:15.726Z,14.53
2018-07-01T20:40:44.364Z,11.73
2018-07-01T20:43:13.000Z,10.63
2018-07-01T20:45:41.667Z,8.87
2018-07-01T20:48:10.271Z,8.77
2018-07-01T20:50:39.072Z,7.67
2018-07-01T20:53:07.669Z,8.87
2018-07-01T20:55:36.238Z,9.87
2018-07-01T20:58:04.898Z,11.83
2018-07-01T21:00:33.599Z,10.60
2018-07-01T21:03:02.171Z,8.80
2018-07-01T21:05:30.734Z,10.10
2018-07-01T21:07:59.292Z,8.20
2018-07-01T21:10:28.214Z,9.63
2018-07-01T21:12:56.987Z,8.27
2018-07-01T21:15:25.544Z,8.00
2018-07-01T21:17:54.127Z,7.87
2018-07-01T21:20:22.921Z,7.37
2018-07-01T21:22:51.507Z,8.93
2018-07-01T21:25:20.123Z,12.33
2018-07-01T21:27:48.665Z,8.87
2018-07-01T21:30:17.287Z,8.43
2018-07-01T21:32:45.921Z,9.83
2018-07-01T21:35:14.518Z,8.90
2018-07-01T21:37:43.141Z,7.50
2018-07-01T21:40:11.735Z,8.27
2018-07-01T21:42:40.275Z,9.13
2018-07-01T21:45:09.235Z,7.97
2018-07-01T21:47:37.991Z,8.20
2018-07-01T21:50:07.121Z,9.10
2018-07-01T21:52:35.823Z,8.07
2018-07-01T21:55:04.603Z,7.83
2018-07-01T21:57:33.204Z,8.27
2018-07-01T22:00:02.087Z,8.17
2018-07-01T22:02:30.657Z,11.70
2018-07-01T22:04:59.307Z,8.03
2018-07-01T22:07:27.952Z,7.83
2018-07-01T22:09:56.923Z,8.00
2018-07-01T22:12:36.387Z,8.40
2018-07-01T22:15:30.393Z,7.70
2018-07-01T22:17:59.033Z,8.60
2018-07-01T22:20:27.876Z,9.10
2018-07-01T22:22:56.487Z,7.90
2018-07-01T22:25:25.107Z,8.90
2018-07-01T22:27:53.659Z,8.57
2018-07-01T22:30:22.323Z,7.70
2018-07-01T22:32:50.943Z,8.60
2018-07-01T22:35:19.569Z,9.10
2018-07-01T22:37:48.306Z,8.97
2018-07-01T22:40:17.071Z,8.93
2018-07-01T22:42:45.626Z,8.27
2018-07-01T22:45:14.275Z,8.63
2018-07-01T22:47:42.936Z,8.60
2018-07-01T22:50:11.719Z,8.50
2018-07-01T22:52:40.362Z,9.30
2018-07-01T22:55:08.943Z,8.43
2018-07-01T22:57:37.539Z,9.00
2018-07-01T23:00:06.184Z,9.23
2018-07-01T23:03:25.787Z,9.57
2018-07-01T23:05:54.386Z,9.30
2018-07-01T23:08:22.969Z,8.23
2018-07-01T23:10:51.546Z,8.93
2018-07-01T23:13:20.122Z,9.93
2018-07-01T23:15:48.727Z,8.37
2018-07-01T23:18:17.313Z,9.10
2018-07-01T23:20:45.906Z,8.83
2018-07-01T23:23:14.529Z,8.50
2018-07-01T23:25:43.241Z,8.63
2018-07-01T23:28:11.837Z,8.93
2018-07-01T23:30:40.441Z,9.20
2018-07-01T23:33:09.059Z,9.30
2018-07-01T23:35:37.643Z,9.97
2018-07-01T23:38:06.266Z,9.13
2018-07-01T23:40:40.169Z,10.37
2018-07-01T23:43:08.798Z,10.03
2018-07-01T23:45:37.410Z,10.53
2018-07-01T23:48:06.454Z,11.93
2018-07-01T23:50:35.157Z,9.77
2018-07-01T23:53:03.797Z,9.60
2018-07-01T23:55:32.483Z,9.73
2018-07-01T23:58:01.172Z,9.37
